Time;durP1;ratioP1;P1;durP2;ratioP2;P2;SDS_P1;SDS_P2;PMS_P1;PMS_P2;Temp;Humidity;BMP_temperature;BMP_pressure;BME280_temperature;BME280_humidity;BME280_pressure;Samples;Min_cycle;Max_cycle;Signal;HPM_P1;HPM_P2
2022/06/23 00:01:29;;;;;;;9.80;7.43;;;;;;;21.90;66.36;94755.63;5050183;28;20311;-65
2022/06/23 00:03:57;;;;;;;7.88;7.00;;;;;;;22.21;65.85;94758.28;5050201;28;20734;-65
2022/06/23 00:06:43;;;;;;;9.38;6.75;;;;;;;22.16;66.02;94763.03;5050120;28;20672;-65
2022/06/23 00:09:47;;;;;;;9.77;6.78;;;;;;;22.20;66.17;94754.88;5050490;28;20272;-66
2022/06/23 00:12:22;;;;;;;10.73;7.00;;;;;;;22.07;66.69;94756.84;5028302;28;20222;-65
2022/06/23 00:14:52;;;;;;;12.98;7.70;;;;;;;22.17;66.43;94755.13;5028316;28;20206;-65
2022/06/23 00:17:24;;;;;;;11.02;7.10;;;;;;;22.07;66.20;94762.03;5040382;28;20730;-65
2022/06/23 00:19:51;;;;;;;13.20;7.20;;;;;;;22.00;66.36;94756.56;5050338;28;20256;-65
2022/06/23 00:22:22;;;;;;;7.20;6.55;;;;;;;22.02;66.33;94764.19;5050347;28;20202;-65
2022/06/23 00:24:52;;;;;;;9.13;6.78;;;;;;;22.04;66.47;94770.03;5049139;28;20435;-66
2022/06/23 00:27:21;;;;;;;9.15;6.82;;;;;;;22.07;66.40;94767.19;5053539;28;20214;-65
2022/06/23 00:29:49;;;;;;;10.27;6.70;;;;;;;22.05;66.51;94746.63;5054740;28;20226;-65
2022/06/23 00:32:16;;;;;;;13.85;7.80;;;;;;;21.90;66.89;94747.06;5054503;28;20198;-65
2022/06/23 00:34:53;;;;;;;7.22;6.60;;;;;;;21.95;66.83;94739.75;5054303;28;20199;-65
2022/06/23 00:37:21;;;;;;;12.07;7.28;;;;;;;21.94;66.86;94722.56;5054536;28;20202;-65
2022/06/23 00:39:53;;;;;;;9.43;6.93;;;;;;;22.06;66.29;94713.81;5054476;28;20265;-65
2022/06/23 00:42:23;;;;;;;15.20;7.72;;;;;;;22.02;66.41;94696.91;5054333;28;20199;-65
2022/06/23 00:44:55;;;;;;;7.75;6.63;;;;;;;21.99;66.29;94704.91;5054366;28;20253;-65
2022/06/23 00:47:26;;;;;;;11.55;7.68;;;;;;;22.06;66.65;94716.38;5054166;28;20664;-65
2022/06/23 00:49:59;;;;;;;7.93;6.82;;;;;;;21.93;67.12;94731.28;5054243;28;20223;-65
2022/06/23 00:52:32;;;;;;;10.82;7.75;;;;;;;21.89;67.31;94724.72;5053815;28;20199;-65
2022/06/23 00:55:04;;;;;;;7.18;6.45;;;;;;;21.91;66.97;94734.00;5053882;28;20199;-65
2022/06/23 00:57:36;;;;;;;8.98;7.05;;;;;;;21.64;68.10;94737.09;5053495;28;20621;-65
2022/06/23 01:00:13;;;;;;;8.27;6.88;;;;;;;21.47;69.19;94740.25;5053941;28;20203;-65
2022/06/23 01:02:45;;;;;;;11.75;6.28;;;;;;;21.61;68.76;94734.75;5053704;28;20249;-64
2022/06/23 01:05:20;;;;;;;10.20;6.47;;;;;;;21.81;68.21;94719.34;5053649;28;20219;-64
2022/06/23 01:07:55;;;;;;;16.33;7.05;;;;;;;21.73;68.39;94720.84;5053739;28;20203;-65
2022/06/23 01:10:28;;;;;;;7.72;6.95;;;;;;;21.54;68.98;94728.44;5052172;28;20451;-64
2022/06/23 01:13:03;;;;;;;7.93;7.22;;;;;;;21.57;68.75;94720.44;5053737;28;20203;-65
2022/06/23 01:15:35;;;;;;;10.07;6.88;;;;;;;21.46;69.45;94723.09;5053344;28;20671;-65
2022/06/23 01:18:08;;;;;;;12.68;7.95;;;;;;;21.38;69.49;94721.13;5053344;28;20254;-64
2022/06/23 01:20:46;;;;;;;7.75;6.60;;;;;;;21.27;69.66;94710.03;5053547;28;20256;-65
2022/06/23 01:23:38;;;;;;;8.43;6.78;;;;;;;21.28;69.79;94709.09;5053533;28;20228;-65
2022/06/23 01:26:27;;;;;;;10.23;8.40;;;;;;;21.13;71.01;94707.69;5052556;28;20583;-64
2022/06/23 01:29:02;;;;;;;12.00;7.22;;;;;;;21.40;69.94;94708.06;5009422;28;20426;-66
2022/06/23 01:31:38;;;;;;;10.32;6.13;;;;;;;21.52;69.27;94712.25;5053314;28;20203;-65
2022/06/23 01:34:16;;;;;;;10.35;7.65;;;;;;;21.63;69.30;94714.78;5053215;28;20256;-65
2022/06/23 01:36:48;;;;;;;12.38;7.40;;;;;;;21.45;69.82;94705.13;5053314;28;20194;-65
2022/06/23 01:39:24;;;;;;;8.43;7.43;;;;;;;21.40;70.14;94697.75;5053043;28;20202;-65
2022/06/23 01:41:56;;;;;;;15.48;7.93;;;;;;;21.37;70.07;94698.81;5053164;28;20198;-65
2022/06/23 01:44:39;;;;;;;9.65;7.60;;;;;;;21.41;70.35;94699.38;5052970;28;20203;-65
2022/06/23 01:47:18;;;;;;;12.23;8.65;;;;;;;21.51;70.09;94691.69;5052636;28;20741;-65
2022/06/23 01:49:49;;;;;;;13.23;7.90;;;;;;;21.33;70.82;94692.25;5053260;28;20317;-65
2022/06/23 01:52:19;;;;;;;15.80;8.77;;;;;;;21.39;70.71;94683.16;5052598;28;20672;-65
2022/06/23 01:54:48;;;;;;;15.05;8.07;;;;;;;21.29;70.68;94674.53;5053022;28;20199;-64
2022/06/23 01:57:26;;;;;;;12.70;8.43;;;;;;;21.32;70.59;94664.75;5052778;28;20256;-65
2022/06/23 02:00:03;;;;;;;13.93;9.60;;;;;;;20.85;72.80;94675.50;5052695;28;20195;-65
2022/06/23 02:02:42;;;;;;;13.23;9.52;;;;;;;20.34;75.02;94666.56;5052275;28;20242;-65
2022/06/23 02:05:23;;;;;;;12.25;9.55;;;;;;;20.03;76.70;94660.41;5052953;28;20218;-65
2022/06/23 02:07:56;;;;;;;11.25;8.35;;;;;;;19.97;77.07;94657.47;5052734;28;20611;-64
2022/06/23 02:10:32;;;;;;;13.00;8.88;;;;;;;20.27;76.36;94665.41;5052364;28;20238;-65
2022/06/23 02:13:13;;;;;;;11.10;9.38;;;;;;;20.70;74.47;94667.22;5052548;28;20253;-64
2022/06/23 02:15:55;;;;;;;9.63;7.75;;;;;;;20.82;73.95;94671.41;5052501;28;20248;-64
2022/06/23 02:18:26;;;;;;;9.75;8.77;;;;;;;20.92;73.50;94672.31;5052526;28;20195;-65
2022/06/23 02:21:05;;;;;;;13.98;9.18;;;;;;;20.80;74.25;94668.13;5052411;28;20253;-65
2022/06/23 02:23:39;;;;;;;13.38;9.88;;;;;;;20.65;74.96;94667.59;5052026;28;20195;-65
2022/06/23 02:26:17;;;;;;;10.32;9.27;;;;;;;20.49;75.65;94663.75;5052568;28;20581;-65
2022/06/23 02:28:54;;;;;;;11.48;8.88;;;;;;;20.05;77.27;94666.22;5051932;28;20318;-66
2022/06/23 02:31:28;;;;;;;13.68;9.07;;;;;;;19.74;79.14;94671.28;5052454;28;20210;-65
2022/06/23 02:34:02;;;;;;;10.73;9.27;;;;;;;19.65;79.77;94668.47;5052050;28;20198;-65
2022/06/23 02:36:39;;;;;;;16.88;9.15;;;;;;;19.70;79.52;94675.84;5052258;28;20253;-65
2022/06/23 02:39:15;;;;;;;9.23;8.20;;;;;;;20.03;78.43;94683.63;5052004;28;20279;-65
2022/06/23 02:41:51;;;;;;;10.30;9.18;;;;;;;20.16;77.94;94683.47;5052103;28;20248;-64
2022/06/23 02:44:40;;;;;;;12.25;8.20;;;;;;;19.92;78.68;94686.19;5051463;28;20248;-65
2022/06/23 02:47:23;;;;;;;12.45;9.00;;;;;;;20.13;78.06;94688.88;5051542;28;20257;-66
2022/06/23 02:50:08;;;;;;;11.02;9.00;;;;;;;20.42;76.50;94693.56;5051252;28;20223;-66
2022/06/23 02:53:01;;;;;;;11.15;8.55;;;;;;;20.70;75.46;94693.06;5051680;28;20194;-65
2022/06/23 02:56:00;;;;;;;12.35;8.88;;;;;;;20.60;75.75;94692.13;5051713;28;20194;-65
2022/06/23 02:58:30;;;;;;;9.10;8.05;;;;;;;20.62;75.83;94695.41;5047060;28;20743;-65
2022/06/23 03:01:03;;;;;;;11.40;8.23;;;;;;;20.56;76.18;94706.19;5051569;28;20199;-65
2022/06/23 03:03:41;;;;;;;12.40;8.73;;;;;;;20.51;76.10;94705.78;5051300;28;20187;-65
2022/06/23 03:06:18;;;;;;;19.35;8.73;;;;;;;20.24;77.34;94706.94;5051594;28;20222;-65
2022/06/23 03:08:52;;;;;;;14.10;8.10;;;;;;;20.11;77.40;94706.22;5050853;28;20308;-65
2022/06/23 03:14:08;;;;;;;9.93;8.90;;;;;;;20.59;75.20;94711.94;5050821;28;20584;-64
2022/06/23 03:16:39;;;;;;;9.07;8.30;;;;;;;20.66;74.71;94713.13;5051135;28;20229;-64
2022/06/23 03:19:11;;;;;;;10.23;8.73;;;;;;;20.84;74.05;94703.09;5051107;28;20199;-63
2022/06/23 03:21:42;;;;;;;10.27;8.05;;;;;;;21.00;73.52;94698.38;5051198;28;20655;-64
2022/06/23 03:24:16;;;;;;;11.60;8.88;;;;;;;21.24;72.17;94687.03;5050785;28;20249;-63
2022/06/23 03:26:46;;;;;;;15.65;9.20;;;;;;;20.70;74.18;94682.72;5051064;28;20260;-63
2022/06/23 03:29:19;;;;;;;14.70;8.68;;;;;;;20.32;76.00;94683.91;5051238;28;20226;-63
2022/06/23 03:31:52;;;;;;;13.32;9.55;;;;;;;20.59;75.37;94682.75;5051007;28;20626;-64
2022/06/23 03:34:26;;;;;;;9.70;8.73;;;;;;;20.80;74.66;94680.22;5050528;28;20668;-63
2022/06/23 03:36:59;;;;;;;12.13;8.70;;;;;;;20.79;74.54;94681.97;5050595;28;20667;-64
2022/06/23 03:42:23;;;;;;;15.25;9.80;;;;;;;21.38;72.37;94678.94;5050792;28;20198;-64
2022/06/23 03:44:54;;;;;;;14.65;9.15;;;;;;;21.78;70.25;94675.66;5049703;28;20295;-64
2022/06/23 03:47:27;;;;;;;10.70;8.15;;;;;;;22.19;68.95;94665.25;5050984;28;20203;-63
2022/06/23 03:50:00;;;;;;;11.38;9.38;;;;;;;22.66;66.86;94662.91;5050570;28;20273;-64
2022/06/23 03:52:37;;;;;;;15.43;8.13;;;;;;;23.16;64.47;94675.78;5050952;28;20199;-64
2022/06/23 03:55:16;;;;;;;12.63;8.13;;;;;;;23.54;63.74;94680.13;5050910;28;20568;-63
2022/06/23 03:57:47;;;;;;;10.63;8.07;;;;;;;24.07;61.43;94694.22;5051008;28;20199;-64
2022/06/23 04:00:25;;;;;;;15.20;8.60;;;;;;;24.74;59.42;94681.91;5050089;28;20191;-64
2022/06/23 04:03:01;;;;;;;11.48;8.00;;;;;;;25.45;57.79;94676.75;5048862;28;20260;-63
2022/06/23 04:05:41;;;;;;;9.02;8.05;;;;;;;25.87;56.37;94686.47;5048685;28;20723;-64
2022/06/23 04:08:08;;;;;;;10.73;7.80;;;;;;;26.06;55.41;94688.88;5049197;28;20206;-64
2022/06/23 04:10:41;;;;;;;11.55;7.32;;;;;;;26.40;54.43;94684.53;5048456;28;20235;-63
2022/06/23 04:13:19;;;;;;;10.10;8.95;;;;;;;26.57;53.75;94689.78;5048902;28;20195;-64
2022/06/23 04:15:49;;;;;;;30.98;22.35;;;;;;;26.30;53.76;94693.41;5049335;28;20199;-63
2022/06/23 04:18:19;;;;;;;17.42;11.00;;;;;;;26.10;55.04;94685.81;5050691;28;20209;-66
2022/06/23 04:20:53;;;;;;;16.42;10.32;;;;;;;25.72;55.63;94700.06;5050746;28;20195;-65
2022/06/23 04:23:25;;;;;;;12.15;7.68;;;;;;;25.55;56.05;94698.25;5050203;28;20195;-65
2022/06/23 04:25:59;;;;;;;11.70;7.38;;;;;;;25.39;56.72;94696.34;5050626;28;20221;-66
2022/06/23 04:28:29;;;;;;;13.18;8.05;;;;;;;25.33;57.25;94694.34;5050287;28;20257;-65
2022/06/23 04:30:58;;;;;;;12.95;7.65;;;;;;;25.36;57.45;94688.03;5050501;28;20321;-66
2022/06/23 04:33:27;;;;;;;11.95;8.38;;;;;;;25.25;57.74;94688.25;5050360;28;20199;-65
2022/06/23 04:35:59;;;;;;;18.65;8.85;;;;;;;25.21;57.85;94673.94;5050341;28;20664;-65
2022/06/23 04:38:37;;;;;;;14.05;7.85;;;;;;;25.37;57.80;94689.66;5049980;28;20293;-64
2022/06/23 04:41:11;;;;;;;16.73;8.65;;;;;;;26.07;56.04;94690.50;5050560;28;20228;-65
2022/06/23 04:43:43;;;;;;;34.35;24.23;;;;;;;26.63;54.40;94681.34;5049944;28;20671;-65
2022/06/23 04:46:13;;;;;;;18.30;14.30;;;;;;;27.12;52.98;94684.91;5049996;28;20199;-65
2022/06/23 04:48:50;;;;;;;17.63;9.48;;;;;;;27.79;51.45;94682.97;5049878;28;20750;-65
2022/06/23 04:51:26;;;;;;;12.88;8.68;;;;;;;28.34;49.33;94683.03;5050304;28;20222;-66
2022/06/23 04:54:01;;;;;;;10.32;9.05;;;;;;;28.17;49.92;94683.22;5050153;28;20284;-66
2022/06/23 04:56:42;;;;;;;39.90;28.55;;;;;;;28.38;49.23;94683.53;5050251;28;20206;-66
2022/06/23 04:59:25;;;;;;;19.05;13.32;;;;;;;28.83;48.02;94677.63;5049879;28;20555;-65
2022/06/23 05:01:54;;;;;;;22.75;9.98;;;;;;;28.57;48.08;94669.22;5049882;28;20203;-64
2022/06/23 05:04:25;;;;;;;10.48;9.18;;;;;;;27.04;51.75;94670.06;5049599;28;20230;-66
2022/06/23 05:06:56;;;;;;;11.18;8.52;;;;;;;27.08;52.21;94660.13;5050274;28;20195;-65
2022/06/23 05:09:29;;;;;;;8.85;8.07;;;;;;;27.19;52.13;94653.78;5049673;28;20231;-65
2022/06/23 05:12:00;;;;;;;10.02;7.35;;;;;;;28.09;50.07;94673.63;5050316;28;20253;-65
2022/06/23 05:14:33;;;;;;;11.95;7.28;;;;;;;28.33;49.42;94668.34;5053202;28;20562;-66
2022/06/23 05:17:11;;;;;;;8.77;7.97;;;;;;;28.53;48.70;94673.97;5053529;28;20257;-66
2022/06/23 05:19:41;;;;;;;11.65;8.20;;;;;;;28.23;49.53;94683.38;5051808;28;20195;-66
2022/06/23 05:22:20;;;;;;;14.00;7.85;;;;;;;28.30;49.36;94684.34;5051972;28;20286;-66
2022/06/23 05:24:49;;;;;;;15.57;9.30;;;;;;;27.49;51.63;94678.38;5051532;28;20199;-66
2022/06/23 05:27:23;;;;;;;18.83;8.82;;;;;;;25.96;56.87;94665.56;5051528;28;20557;-66
2022/06/23 05:29:56;;;;;;;12.10;10.45;;;;;;;24.69;59.89;94650.34;5051337;28;20728;-66
2022/06/23 05:32:26;;;;;;;16.00;10.38;;;;;;;24.73;59.82;94649.91;5051711;28;20252;-66
2022/06/23 05:34:59;;;;;;;22.38;10.40;;;;;;;24.82;59.75;94689.78;5051859;28;20203;-66
2022/06/23 05:37:33;;;;;;;13.63;9.52;;;;;;;25.17;59.35;94696.00;5052989;28;20734;-66
2022/06/23 05:40:24;;;;;;;19.75;11.43;;;;;;;23.79;62.40;94691.69;5052432;28;20198;-65
2022/06/23 05:42:54;;;;;;;18.58;11.73;;;;;;;23.05;65.39;94664.59;5051260;28;20198;-65
2022/06/23 05:45:24;;;;;;;13.18;10.60;;;;;;;22.62;67.61;94695.19;5051365;28;20797;-65
2022/06/23 05:47:51;;;;;;;24.58;11.73;;;;;;;22.46;68.59;94738.91;5051540;28;20564;-65
2022/06/23 05:50:23;;;;;;;22.55;12.07;;;;;;;22.26;69.47;94831.22;5050722;28;20223;-65
2022/06/23 05:52:58;;;;;;;21.92;11.50;;;;;;;22.33;69.88;95014.38;5051284;28;20199;-64
2022/06/23 05:55:31;;;;;;;17.02;10.30;;;;;;;21.91;72.43;95059.16;5051723;28;20205;-69
2022/06/23 05:58:06;;;;;;;24.25;10.23;;;;;;;20.95;80.87;95054.41;5052824;28;20265;-70
2022/06/23 06:00:43;;;;;;;19.90;10.20;;;;;;;19.99;85.39;94898.03;5052730;28;20195;-70
2022/06/23 06:03:19;;;;;;;15.07;9.40;;;;;;;18.88;93.44;94821.78;5052498;28;20210;-69
2022/06/23 06:05:48;;;;;;;17.38;8.25;;;;;;;18.61;94.87;94844.25;5052450;28;20276;-70
2022/06/23 06:08:21;;;;;;;11.82;7.85;;;;;;;18.86;93.01;94879.44;5052932;28;20202;-69
2022/06/23 06:10:49;;;;;;;9.43;8.20;;;;;;;18.44;96.00;94898.59;5052117;28;20231;-69
2022/06/23 06:13:19;;;;;;;12.25;7.25;;;;;;;18.87;93.09;94912.00;5052423;28;20203;-71
2022/06/23 06:15:50;;;;;;;9.38;7.68;;;;;;;18.71;94.60;94914.78;5052582;28;20274;-70
2022/06/23 06:18:24;;;;;;;9.93;6.88;;;;;;;18.90;93.25;94910.03;5052468;28;20341;-70
2022/06/23 06:20:54;;;;;;;12.25;6.60;;;;;;;19.20;91.48;94899.38;5052240;28;20206;-70
2022/06/23 06:23:33;;;;;;;11.13;6.93;;;;;;;19.13;91.79;94877.53;5051626;28;20249;-69
2022/06/23 06:26:00;;;;;;;8.30;6.60;;;;;;;19.05;92.35;94863.56;5052119;28;20198;-70
2022/06/23 06:28:31;;;;;;;10.82;7.28;;;;;;;19.15;91.96;94847.34;5052165;28;20205;-70
2022/06/23 06:31:05;;;;;;;16.95;7.53;;;;;;;19.24;92.75;94833.81;5051965;28;20223;-70
2022/06/23 06:33:43;;;;;;;8.68;6.80;;;;;;;18.91;94.37;94829.28;5051947;28;20199;-70
2022/06/23 06:36:26;;;;;;;7.57;6.93;;;;;;;18.96;94.61;94839.25;5052143;28;20260;-70
2022/06/23 06:38:58;;;;;;;7.82;6.97;;;;;;;19.10;93.05;94828.81;5052021;28;20612;-70
2022/06/23 06:41:25;;;;;;;12.38;8.23;;;;;;;18.86;96.12;94843.41;5052150;28;20199;-70
2022/06/23 06:43:53;;;;;;;10.00;7.25;;;;;;;18.92;93.54;94830.94;5052172;28;20252;-71
2022/06/23 06:46:19;;;;;;;10.45;7.63;;;;;;;19.14;92.54;94825.09;5051959;28;20207;-70
2022/06/23 06:48:46;;;;;;;8.68;7.43;;;;;;;19.20;92.14;94818.69;5052077;28;20203;-71
2022/06/23 06:51:18;;;;;;;9.90;7.50;;;;;;;19.32;91.68;94825.53;5051861;28;20276;-70
2022/06/23 06:53:49;;;;;;;12.73;6.55;;;;;;;19.46;91.26;94809.91;5051848;28;20207;-70
2022/06/23 06:56:24;;;;;;;8.52;6.63;;;;;;;19.33;90.61;94816.84;5051550;28;20210;-71
2022/06/23 06:58:58;;;;;;;8.38;6.13;;;;;;;19.56;88.96;94812.66;5051658;28;20199;-70
2022/06/23 07:01:26;;;;;;;9.02;6.40;;;;;;;19.95;86.64;94803.75;5050540;28;20696;-70
2022/06/23 07:03:55;;;;;;;12.25;9.27;;;;;;;20.19;86.99;94814.81;5049476;28;20901;-70
2022/06/23 07:06:29;;;;;;;9.23;6.25;;;;;;;20.08;90.35;94819.97;5049392;28;20972;-70
2022/06/23 07:09:06;;;;;;;13.90;9.65;;;;;;;19.96;92.08;94826.03;5049727;28;20779;-71
2022/06/23 07:11:44;;;;;;;17.05;12.18;;;;;;;20.08;90.58;94824.28;5049576;28;20304;-70
2022/06/23 07:14:19;;;;;;;11.90;8.02;;;;;;;20.33;90.07;94819.75;5049709;28;20225;-70
2022/06/23 07:16:51;;;;;;;23.70;13.75;;;;;;;20.43;92.31;94821.69;5049666;28;20205;-71
2022/06/23 07:19:26;;;;;;;14.55;11.20;;;;;;;20.61;91.92;94833.19;5049866;28;20290;-69
2022/06/23 07:22:00;;;;;;;10.38;8.40;;;;;;;20.70;91.96;94853.97;5049185;28;20232;-69
2022/06/23 07:24:30;;;;;;;10.85;6.53;;;;;;;20.71;90.58;94854.78;5049221;28;20592;-70
2022/06/23 07:27:03;;;;;;;10.05;8.20;;;;;;;20.78;89.66;94852.56;5050412;28;20225;-72
2022/06/23 07:29:38;;;;;;;70.45;48.53;;;;;;;20.95;87.41;94854.66;5050274;28;20195;-74
2022/06/23 07:32:19;;;;;;;33.28;22.02;;;;;;;21.68;84.10;94854.06;5050966;28;20194;-75
2022/06/23 07:34:51;;;;;;;11.00;9.00;;;;;;;22.29;82.92;94859.41;5051060;28;20199;-74
2022/06/23 07:37:26;;;;;;;19.05;12.18;;;;;;;22.57;80.26;94865.69;5050762;28;20715;-73
2022/06/23 07:40:00;;;;;;;11.68;8.52;;;;;;;22.63;78.31;94870.38;5051544;28;20256;-76
2022/06/23 07:42:42;;;;;;;8.15;6.82;;;;;;;22.67;75.14;94872.59;5051137;28;20214;-76
2022/06/23 07:45:16;;;;;;;7.53;6.72;;;;;;;22.47;76.01;94870.84;5050790;28;20203;-71
2022/06/23 07:47:42;;;;;;;6.80;5.25;;;;;;;22.53;74.27;94879.84;5050729;28;20211;-72
2022/06/23 07:50:10;;;;;;;8.05;7.28;;;;;;;22.60;74.23;94881.00;5051068;28;20222;-72
2022/06/23 07:52:37;;;;;;;5.72;5.32;;;;;;;22.10;73.50;94887.75;5050891;28;20202;-72
2022/06/23 07:55:04;;;;;;;8.40;5.95;;;;;;;22.02;75.49;94896.97;5050775;28;20203;-73
2022/06/23 07:57:35;;;;;;;7.93;6.22;;;;;;;22.06;74.93;94887.19;5050685;28;20195;-73
2022/06/23 08:00:06;;;;;;;5.82;4.70;;;;;;;22.06;74.94;94871.66;5051039;28;20202;-69
2022/06/23 08:02:42;;;;;;;6.15;5.57;;;;;;;22.12;76.25;94876.34;5050545;28;20586;-71
2022/06/23 08:05:14;;;;;;;5.50;4.38;;;;;;;22.25;72.89;94887.34;5050288;28;20272;-69
2022/06/23 08:07:41;;;;;;;4.80;4.28;;;;;;;22.43;73.21;94899.72;5050701;28;20202;-70
2022/06/23 08:10:11;;;;;;;5.35;4.03;;;;;;;22.79;72.75;94886.28;5050208;28;20230;-70
2022/06/23 08:12:56;;;;;;;5.03;4.20;;;;;;;23.02;69.73;94861.84;5050591;28;20290;-70
2022/06/23 08:18:24;;;;;;;7.05;4.05;;;;;;;23.22;67.76;94877.47;5050593;28;20202;-70
2022/06/23 08:20:59;;;;;;;10.10;7.15;;;;;;;23.65;69.23;94874.56;5050089;28;20281;-71
2022/06/23 08:23:29;;;;;;;6.28;5.47;;;;;;;23.97;67.66;94863.94;5050469;28;20199;-70
2022/06/23 08:25:56;;;;;;;6.40;4.75;;;;;;;23.43;68.04;94854.84;5050023;28;20256;-72
2022/06/23 08:28:25;;;;;;;5.95;4.32;;;;;;;23.36;66.92;94858.91;5050578;28;20198;-70
2022/06/23 08:30:51;;;;;;;5.72;4.53;;;;;;;23.51;68.56;94860.16;5050195;28;20223;-70
2022/06/23 08:33:18;;;;;;;5.90;4.57;;;;;;;23.47;72.16;94858.81;5050333;28;20206;-71
2022/06/23 08:35:48;;;;;;;6.53;5.95;;;;;;;23.99;68.31;94854.22;5050452;28;20203;-70
2022/06/23 08:38:21;;;;;;;13.40;5.70;;;;;;;24.17;66.14;94849.97;5049927;28;20244;-71
2022/06/23 08:41:14;;;;;;;5.93;5.43;;;;;;;24.14;65.63;94849.44;5050269;28;20202;-70
2022/06/23 08:43:48;;;;;;;23.25;4.97;;;;;;;24.35;65.57;94848.31;5050392;28;20203;-70
2022/06/23 08:46:23;;;;;;;8.07;4.78;;;;;;;24.55;63.57;94843.06;5050227;28;20202;-70
2022/06/23 08:48:59;;;;;;;6.00;4.57;;;;;;;24.55;60.89;94836.09;5053615;28;20695;-70
2022/06/23 08:51:36;;;;;;;9.57;4.93;;;;;;;24.14;62.21;94839.03;5053862;28;20222;-70
2022/06/23 08:54:08;;;;;;;5.03;4.20;;;;;;;23.78;63.87;94832.78;5054293;28;20294;-70
2022/06/23 08:56:43;;;;;;;5.70;4.38;;;;;;;23.82;67.60;94831.53;5054157;28;20265;-70
2022/06/23 08:59:22;;;;;;;6.85;4.45;;;;;;;24.11;64.99;94829.75;5054163;28;20199;-70
2022/06/23 09:01:53;;;;;;;6.68;4.45;;;;;;;24.08;63.09;94830.03;5053722;28;20271;-70
2022/06/23 09:04:33;;;;;;;9.60;4.80;;;;;;;23.79;64.56;94834.41;5053610;28;20226;-71
2022/06/23 09:07:06;;;;;;;5.50;4.85;;;;;;;23.93;66.45;94827.03;5053631;28;20586;-71
2022/06/23 09:09:41;;;;;;;6.68;5.82;;;;;;;24.11;66.46;94823.75;5053730;28;20296;-70
2022/06/23 09:12:15;;;;;;;6.20;5.22;;;;;;;23.95;63.53;94824.31;5053425;28;20219;-69
2022/06/23 09:15:13;;;;;;;8.43;5.28;;;;;;;23.89;65.15;94822.25;5053568;28;20356;-71
2022/06/23 09:18:02;;;;;;;9.85;5.82;;;;;;;23.80;65.40;94823.06;5053373;28;20264;-70
2022/06/23 09:20:46;;;;;;;13.02;6.15;;;;;;;23.89;67.53;94820.50;5009916;28;20199;-72
2022/06/23 09:23:30;;;;;;;12.63;6.63;;;;;;;24.05;64.93;94819.91;5053236;28;20199;-70
2022/06/23 09:26:06;;;;;;;8.77;6.63;;;;;;;24.17;62.71;94818.81;5053606;28;20199;-70
2022/06/23 09:28:53;;;;;;;8.40;6.75;;;;;;;23.87;64.76;94811.19;5053537;28;20297;-71
2022/06/23 09:31:33;;;;;;;7.60;5.82;;;;;;;24.18;65.89;94801.47;5053270;28;20292;-72
2022/06/23 09:34:13;;;;;;;8.98;6.20;;;;;;;24.67;64.84;94801.19;5053071;28;20207;-71
2022/06/23 09:36:58;;;;;;;8.43;6.15;;;;;;;25.34;60.58;94801.81;5052942;28;20238;-71
2022/06/23 09:40:02;;;;;;;7.93;7.13;;;;;;;25.80;61.12;94794.78;5052910;28;20233;-71
2022/06/23 09:42:54;;;;;;;7.18;6.32;;;;;;;26.29;60.95;94790.75;5053022;28;20202;-70
2022/06/23 09:45:39;;;;;;;8.60;6.30;;;;;;;26.63;59.70;94778.59;5052763;28;20555;-70
2022/06/23 09:48:28;;;;;;;19.45;7.82;;;;;;;26.77;58.91;94779.78;5053188;28;20252;-71
2022/06/23 09:51:11;;;;;;;9.07;7.75;;;;;;;26.54;59.71;94786.53;5053097;28;20281;-73
2022/06/23 09:54:07;;;;;;;14.23;6.63;;;;;;;26.75;59.67;94785.16;5052711;28;20195;-72
2022/06/23 09:57:19;;;;;;;10.40;7.35;;;;;;;26.65;57.97;94786.25;5052560;28;20203;-71
2022/06/23 10:00:03;;;;;;;11.25;7.35;;;;;;;26.30;58.39;94797.63;5030322;28;20200;-71
2022/06/23 10:02:46;;;;;;;11.32;7.82;;;;;;;26.61;59.00;94792.75;5052122;28;20628;-72
2022/06/23 10:05:39;;;;;;;11.85;6.25;;;;;;;27.01;58.46;94790.34;5052435;28;20234;-72
2022/06/23 10:08:18;;;;;;;11.00;7.50;;;;;;;27.22;58.75;94789.13;5049335;28;20198;-72
2022/06/23 10:11:10;;;;;;;10.13;6.30;;;;;;;27.23;57.23;94790.72;5052022;28;20622;-72
2022/06/23 10:13:54;;;;;;;16.50;6.95;;;;;;;26.93;59.08;94785.09;5051083;28;20199;-72
2022/06/23 10:16:48;;;;;;;10.52;7.55;;;;;;;26.63;57.91;94793.41;5051059;28;20194;-72
2022/06/23 10:19:49;;;;;;;7.88;6.85;;;;;;;26.32;59.45;94778.25;5050895;28;20304;-72
2022/06/23 10:22:30;;;;;;;15.18;10.13;;;;;;;26.01;61.51;94770.06;5050528;28;20248;-72
2022/06/23 10:25:11;;;;;;;12.25;8.65;;;;;;;26.24;60.90;94767.75;5050316;28;20673;-72
2022/06/23 10:27:57;;;;;;;15.95;8.30;;;;;;;26.35;61.59;94757.13;5050593;28;20199;-72
2022/06/23 10:30:32;;;;;;;19.42;9.27;;;;;;;26.49;60.12;94757.50;5050530;28;20230;-72
2022/06/23 10:33:34;;;;;;;16.00;7.68;;;;;;;26.67;59.84;94753.84;5050259;28;20190;-73
2022/06/23 10:36:17;;;;;;;15.07;8.10;;;;;;;26.76;60.09;94750.28;5050283;28;20252;-72
2022/06/23 10:39:02;;;;;;;14.38;8.18;;;;;;;26.94;59.55;94747.59;5036787;28;20257;-72
2022/06/23 10:42:02;;;;;;;11.82;6.97;;;;;;;26.81;61.84;94746.41;5030444;28;20191;-72
2022/06/23 10:44:54;;;;;;;13.65;7.93;;;;;;;26.33;62.71;94746.03;5029946;28;20195;-71
2022/06/23 10:47:40;;;;;;;9.98;8.00;;;;;;;26.45;62.97;94733.56;5031997;28;20204;-72
2022/06/23 10:50:31;;;;;;;20.67;9.57;;;;;;;26.64;60.94;94732.50;5031852;28;20238;-71
2022/06/23 10:53:13;;;;;;;18.90;8.68;;;;;;;26.79;60.36;94733.53;5031920;28;20224;-71
2022/06/23 10:55:59;;;;;;;54.28;29.73;;;;;;;26.94;61.04;94731.97;5031789;28;20254;-71
2022/06/23 10:58:55;;;;;;;20.63;14.43;;;;;;;26.79;61.16;94730.91;5031685;28;20195;-72
2022/06/23 11:02:02;;;;;;;11.07;8.57;;;;;;;26.46;60.93;94734.38;5031624;28;20207;-72
2022/06/23 11:04:54;;;;;;;14.55;10.00;;;;;;;26.69;61.59;94735.47;5022571;28;20220;-72
2022/06/23 11:07:41;;;;;;;10.15;7.03;;;;;;;26.75;60.05;94725.19;5031683;28;20203;-70
2022/06/23 11:10:29;;;;;;;14.18;10.38;;;;;;;27.13;61.01;94722.25;5030650;28;20664;-73
2022/06/23 11:13:09;;;;;;;14.52;10.27;;;;;;;27.27;59.43;94726.81;5031345;28;20220;-73
2022/06/23 11:15:46;;;;;;;25.67;13.85;;;;;;;27.32;60.55;94727.97;5031114;28;20203;-71
2022/06/23 11:18:36;;;;;;;14.35;9.85;;;;;;;27.48;58.08;94727.16;5031508;28;20644;-73
2022/06/23 11:21:16;;;;;;;14.00;8.13;;;;;;;27.35;59.92;94719.00;5001919;28;20212;-71
2022/06/23 11:23:55;;;;;;;13.82;10.70;;;;;;;27.55;59.23;94722.94;5031135;28;20211;-71
2022/06/23 11:26:35;;;;;;;8.98;7.63;;;;;;;27.46;60.17;94723.91;5031403;28;20207;-73
2022/06/23 11:29:23;;;;;;;10.90;7.72;;;;;;;27.52;58.65;94728.47;5031216;28;20617;-71
2022/06/23 11:32:00;;;;;;;12.32;8.40;;;;;;;27.26;61.24;94733.81;5031005;28;20228;-71
2022/06/23 11:34:42;;;;;;;10.20;9.20;;;;;;;26.95;60.82;94741.44;5030565;28;20195;-72
2022/06/23 11:37:26;;;;;;;14.82;8.10;;;;;;;27.12;61.75;94739.69;5031394;28;20203;-71
2022/06/23 11:40:16;;;;;;;11.73;8.70;;;;;;;27.22;59.53;94744.78;5031195;28;20199;-71
2022/06/23 11:43:00;;;;;;;8.43;6.03;;;;;;;27.04;60.76;94760.53;5030920;28;20646;-73
2022/06/23 11:45:40;;;;;;;7.35;6.65;;;;;;;27.01;61.23;94751.22;5030576;28;20273;-74
2022/06/23 11:48:28;;;;;;;11.57;7.30;;;;;;;27.06;60.00;94759.38;5030742;28;20249;-72
2022/06/23 11:51:05;;;;;;;12.48;7.43;;;;;;;27.07;59.51;94747.16;5030871;28;20199;-72
2022/06/23 11:53:47;;;;;;;7.07;5.47;;;;;;;27.13;59.59;94750.94;5030407;28;20261;-73
2022/06/23 11:56:26;;;;;;;7.45;5.47;;;;;;;27.21;59.96;94750.97;5031127;28;20199;-73
2022/06/23 11:59:12;;;;;;;9.13;5.13;;;;;;;27.23;58.40;94749.81;5030786;28;20265;-72
2022/06/23 12:01:41;;;;;;;9.30;6.15;;;;;;;27.22;59.31;94750.00;5030790;28;20196;-73
2022/06/23 12:04:38;;;;;;;11.40;4.43;;;;;;;27.08;58.31;94743.59;5030355;28;20220;-70
2022/06/23 12:07:22;;;;;;;9.45;4.97;;;;;;;26.58;59.41;94741.75;5030570;28;20200;-71
2022/06/23 12:09:59;;;;;;;10.10;5.10;;;;;;;26.66;60.49;94730.56;5028844;28;20235;-72
2022/06/23 12:12:27;;;;;;;7.38;4.70;;;;;;;26.90;58.59;94722.81;5029044;28;20222;-71
2022/06/23 12:14:54;;;;;;;8.20;5.03;;;;;;;27.01;59.18;94724.31;5028512;28;20203;-71
2022/06/23 12:17:27;;;;;;;8.15;4.65;;;;;;;27.24;58.20;94712.28;5028812;28;20200;-72
2022/06/23 12:20:00;;;;;;;13.23;5.45;;;;;;;27.40;58.06;94706.28;5028565;28;20649;-70